createdAt,value
2022-10-22T00:00:52.069Z,13.2
2022-10-22T00:02:56.818Z,13.1
2022-10-22T00:04:58.192Z,13.1
2022-10-22T00:06:59.592Z,13.2
2022-10-22T00:09:01.097Z,13.2
2022-10-22T00:11:02.349Z,13.2
2022-10-22T00:13:03.758Z,13.2
2022-10-22T00:15:05.174Z,13.2
2022-10-22T00:17:11.536Z,13.2
2022-10-22T00:19:11.257Z,13.3
2022-10-22T00:21:12.658Z,13.3
2022-10-22T00:23:14.053Z,13.3
2022-10-22T00:25:15.565Z,13.3
2022-10-22T00:27:16.864Z,13.4
2022-10-22T00:29:18.231Z,13.4
2022-10-22T00:31:22.919Z,13.4
2022-10-22T00:33:24.335Z,13.4
2022-10-22T00:35:25.769Z,13.3
2022-10-22T00:37:27.120Z,13.3
2022-10-22T00:39:28.511Z,13.3
2022-10-22T00:41:29.929Z,13.3
2022-10-22T00:43:31.282Z,13.3
2022-10-22T00:45:36.048Z,13.2
2022-10-22T00:47:37.421Z,13.1
2022-10-22T00:50:41.129Z,13
2022-10-22T00:52:42.891Z,13.1
2022-10-22T00:54:43.932Z,13.1
2022-10-22T00:56:45.372Z,13.1
2022-10-22T00:58:50.073Z,13.1
2022-10-22T01:00:51.513Z,13.1
2022-10-22T01:02:52.829Z,13.1
2022-10-22T01:04:54.224Z,13.2
2022-10-22T01:06:55.683Z,13.2
2022-10-22T01:08:57.076Z,13.3
2022-10-22T01:10:58.443Z,13.3
2022-10-22T01:13:03.154Z,13.3
2022-10-22T01:15:04.551Z,13.2
2022-10-22T01:19:07.322Z,13.2
2022-10-22T01:21:08.704Z,13.2
2022-10-22T01:23:11.684Z,13.2
2022-10-22T01:25:13.043Z,13.2
2022-10-22T01:29:19.130Z,13.1
2022-10-22T01:33:21.939Z,12.9
2022-10-22T01:35:23.435Z,12.7
2022-10-22T01:45:33.640Z,12.7
2022-10-22T01:47:56.654Z,12.5
2022-10-22T01:49:58.028Z,12.5
2022-10-22T01:51:59.435Z,12.5
2022-10-22T01:54:04.116Z,12.4
2022-10-22T01:56:05.537Z,12.4
2022-10-22T01:58:06.950Z,12.3
2022-10-22T02:00:08.312Z,12.3
2022-10-22T02:04:11.097Z,12.4
2022-10-22T02:06:12.473Z,12.2
2022-10-22T02:08:17.200Z,12.3
2022-10-22T02:10:18.600Z,12.3
2022-10-22T02:12:20.022Z,12.3
2022-10-22T02:14:21.423Z,12.2
2022-10-22T02:16:22.740Z,12.2
2022-10-22T02:18:24.170Z,12
2022-10-22T02:20:25.565Z,11.8
2022-10-22T02:22:30.282Z,11.5
2022-10-22T02:24:31.689Z,11.4
2022-10-22T02:26:33.074Z,11.6
2022-10-22T02:28:34.449Z,11.5
2022-10-22T02:30:35.856Z,11.4
2022-10-22T02:32:37.513Z,11.5
2022-10-22T02:36:46.680Z,11.5
2022-10-22T02:38:44.777Z,11.5
2022-10-22T02:40:46.185Z,11.5
2022-10-22T02:45:51.350Z,11.6
2022-10-22T02:47:52.753Z,11.7
2022-10-22T03:04:10.575Z,11.9
2022-10-22T03:06:12.058Z,11.8
2022-10-22T03:08:13.414Z,11.8
2022-10-22T03:10:14.823Z,11.8
2022-10-22T03:14:17.622Z,11.7
2022-10-22T03:26:29.347Z,11.4
2022-10-22T03:28:30.774Z,11.4
2022-10-22T03:30:32.035Z,11.4
2022-10-22T03:36:39.537Z,11.3
2022-10-22T03:37:42.235Z,11
2022-10-22T03:39:43.413Z,11.2
2022-10-22T03:41:44.713Z,11.4
2022-10-22T03:43:46.085Z,11.3
2022-10-22T03:45:50.794Z,11.3
2022-10-22T03:47:52.191Z,11.4
2022-10-22T03:49:53.566Z,11.2
2022-10-22T03:51:54.958Z,11.2
2022-10-22T03:53:56.364Z,11
2022-10-22T03:55:57.766Z,10.7
2022-10-22T03:57:59.180Z,11.1
2022-10-22T04:00:03.924Z,11
2022-10-22T04:02:05.286Z,11.1
2022-10-22T04:04:06.715Z,11.3
2022-10-22T04:06:08.089Z,11.4
2022-10-22T04:14:17.001Z,11.5
2022-10-22T04:16:18.422Z,11.5
2022-10-22T04:18:19.807Z,11.6
2022-10-22T04:20:21.193Z,11.6
2022-10-22T04:22:22.555Z,11.7
2022-10-22T04:24:23.941Z,11.6
2022-10-22T04:26:25.516Z,11.7
2022-10-22T04:28:30.048Z,11.7
2022-10-22T04:30:31.466Z,11.7
2022-10-22T04:32:32.865Z,11.6
2022-10-22T04:33:35.214Z,11.8
2022-10-22T04:43:45.528Z,12.3
2022-10-22T04:45:46.968Z,12.3
2022-10-22T04:47:48.314Z,12.3
2022-10-22T04:49:49.748Z,12.3
2022-10-22T04:51:51.140Z,12.4
2022-10-22T04:53:52.533Z,12.5
2022-10-22T04:57:58.620Z,12.7
2022-10-22T05:00:00.044Z,12.6
2022-10-22T05:02:01.432Z,12.6
2022-10-22T05:04:02.840Z,12.7
2022-10-22T05:06:04.309Z,12.6
2022-10-22T05:08:05.638Z,12.7
2022-10-22T05:10:10.347Z,12.8
2022-10-22T05:12:11.872Z,12.9
2022-10-22T05:14:13.122Z,12.8
2022-10-22T05:26:24.787Z,13
2022-10-22T05:28:26.184Z,12.9
2022-10-22T05:30:49.010Z,12.9
2022-10-22T05:32:50.433Z,12.9
2022-10-22T05:34:51.808Z,12.9
2022-10-22T05:36:56.487Z,13
2022-10-22T05:38:57.893Z,13
2022-10-22T05:40:59.257Z,13
2022-10-22T05:43:00.700Z,13
2022-10-22T05:45:02.065Z,12.9
2022-10-22T05:47:03.457Z,13.1
2022-10-22T05:49:04.832Z,13
2022-10-22T05:51:09.550Z,13.1
2022-10-22T05:53:10.992Z,13.1
2022-10-22T05:55:12.337Z,13
2022-10-22T05:57:13.765Z,13
2022-10-22T05:59:15.258Z,13
2022-10-22T06:01:16.554Z,13
2022-10-22T06:05:22.668Z,13
2022-10-22T06:07:24.063Z,13
2022-10-22T06:09:25.502Z,13.1
2022-10-22T06:11:28.893Z,13.2
2022-10-22T06:17:31.076Z,13.2
2022-10-22T06:21:37.168Z,13.1
2022-10-22T06:23:38.551Z,13.2
2022-10-22T06:26:42.298Z,13.2
2022-10-22T06:28:43.687Z,13.2
2022-10-22T06:30:46.621Z,13.3
2022-10-22T06:34:51.197Z,13.5
2022-10-22T06:36:52.601Z,13.5
2022-10-22T06:38:53.973Z,13.7
2022-10-22T06:40:55.386Z,14
2022-10-22T06:42:56.757Z,14.2
2022-10-22T06:47:02.875Z,14.7
2022-10-22T06:49:04.319Z,14.8
2022-10-22T06:51:05.698Z,14.9
2022-10-22T06:53:07.133Z,14.9
2022-10-22T06:55:08.464Z,14.4
2022-10-22T06:57:09.902Z,14.1
2022-10-22T06:59:11.274Z,14
2022-10-22T07:01:16.029Z,13.9
2022-10-22T07:05:18.737Z,14
2022-10-22T07:07:20.163Z,13.9
2022-10-22T07:09:21.595Z,13.9
2022-10-22T07:11:22.922Z,14
2022-10-22T07:13:25.913Z,14.2
2022-10-22T07:17:32.046Z,15
2022-10-22T07:19:33.316Z,14.8
2022-10-22T07:20:35.694Z,15.4
2022-10-22T07:22:37.068Z,15.7
2022-10-22T07:24:38.483Z,15.5
2022-10-22T07:26:39.850Z,15.8
2022-10-22T07:28:44.541Z,15.3
2022-10-22T07:30:45.908Z,15
2022-10-22T07:32:47.304Z,14.8
2022-10-22T07:34:48.695Z,15
2022-10-22T07:36:50.092Z,15.4
2022-10-22T07:38:51.497Z,16.1
2022-10-22T07:40:53.034Z,16.1
2022-10-22T07:42:57.601Z,15.1
2022-10-22T07:44:58.985Z,15.1
2022-10-22T07:47:00.380Z,14.9
2022-10-22T07:49:01.775Z,14.8
2022-10-22T07:51:03.172Z,14.9
2022-10-22T07:53:04.547Z,14.8
2022-10-22T07:55:05.937Z,15
2022-10-22T07:57:10.644Z,15.1
2022-10-22T07:59:12.034Z,15
2022-10-22T08:01:13.512Z,15
2022-10-22T08:03:14.829Z,15
2022-10-22T08:11:23.667Z,15.3
2022-10-22T08:16:28.836Z,17.4
2022-10-22T08:18:30.211Z,17.5
2022-10-22T08:20:31.580Z,17.7
2022-10-22T08:22:33.000Z,17.5
2022-10-22T08:24:37.667Z,17.2
2022-10-22T08:26:39.099Z,17.1
2022-10-22T08:30:41.864Z,16
2022-10-22T08:34:44.611Z,15.7
2022-10-22T08:36:45.981Z,15.6
2022-10-22T08:38:50.681Z,15.7
2022-10-22T08:40:52.065Z,15.7
2022-10-22T08:42:53.621Z,15.7
2022-10-22T08:46:56.197Z,15.6
2022-10-22T08:48:57.664Z,15.6
2022-10-22T08:50:59.002Z,15.6
2022-10-22T08:53:03.692Z,15.7
2022-10-22T08:55:05.100Z,15.8
2022-10-22T08:57:06.454Z,15.8
2022-10-22T08:59:07.814Z,15.9
2022-10-22T09:01:09.190Z,15.8
2022-10-22T09:03:10.568Z,15.8
2022-10-22T09:05:12.375Z,15.8
2022-10-22T09:07:16.664Z,15.7
2022-10-22T09:09:18.108Z,15.8
2022-10-22T09:11:19.427Z,15.7
2022-10-22T09:13:42.161Z,15.7
2022-10-22T09:15:45.025Z,15.7
2022-10-22T09:17:45.037Z,15.6
2022-10-22T09:21:50.986Z,15.2
2022-10-22T09:23:52.398Z,15.3
2022-10-22T09:25:53.752Z,15.5
2022-10-22T09:31:57.865Z,15.5
2022-10-22T09:34:02.599Z,15.7
2022-10-22T09:36:03.949Z,15.8
2022-10-22T09:38:05.321Z,16
2022-10-22T09:44:09.503Z,15.6
2022-10-22T09:46:10.816Z,15.6
2022-10-22T09:54:19.648Z,14.6
2022-10-22T09:56:21.036Z,14.6
2022-10-22T09:58:22.395Z,14.6
2022-10-22T10:00:23.771Z,14.9
2022-10-22T10:02:38.682Z,15.1
2022-10-22T10:04:29.862Z,15.2
2022-10-22T10:06:31.242Z,15.4
2022-10-22T10:07:33.528Z,15.7
2022-10-22T10:09:34.945Z,15.8
2022-10-22T10:11:36.277Z,16.1
2022-10-22T10:13:37.664Z,16.1
2022-10-22T10:15:42.402Z,16.6
2022-10-22T10:17:44.155Z,16.6
2022-10-22T10:19:45.111Z,16.5
2022-10-22T10:23:47.869Z,17
2022-10-22T10:29:55.209Z,17
2022-10-22T10:31:56.590Z,16.9
2022-10-22T10:33:57.963Z,16.6
2022-10-22T10:35:59.324Z,16.8
2022-10-22T10:38:00.702Z,16.7
2022-10-22T10:40:02.056Z,16.7
2022-10-22T10:42:03.417Z,16.7
2022-10-22T10:44:08.086Z,16.8
2022-10-22T10:46:09.480Z,16.7
2022-10-22T10:48:10.721Z,16.6
2022-10-22T10:50:12.020Z,16.4
2022-10-22T10:52:17.405Z,16.5
2022-10-22T10:54:14.756Z,16.6
2022-10-22T10:56:16.101Z,16.7
2022-10-22T10:58:20.703Z,16.8
2022-10-22T11:00:22.087Z,16.7
2022-10-22T11:02:23.417Z,16.7
2022-10-22T11:03:25.690Z,16.8
2022-10-22T11:11:34.104Z,17.2
2022-10-22T11:13:35.467Z,17.2
2022-10-22T11:23:41.907Z,16.8
2022-10-22T11:33:54.614Z,17.2
2022-10-22T11:35:52.993Z,17.5
2022-10-22T11:37:54.272Z,17.4
2022-10-22T11:44:01.535Z,17.3
2022-10-22T11:46:02.795Z,17.5
2022-10-22T11:54:11.039Z,17.6
2022-10-22T11:56:12.308Z,17.7
2022-10-22T11:58:13.551Z,17.9
2022-10-22T11:59:15.794Z,17.7
2022-10-22T12:11:26.993Z,17
2022-10-22T12:13:28.252Z,16.9
2022-10-22T12:19:32.103Z,16.7
2022-10-22T12:21:36.723Z,16.8
2022-10-22T12:23:38.072Z,16.8
2022-10-22T12:29:42.162Z,17.3
2022-10-22T12:31:43.458Z,17.3
2022-10-22T12:33:44.807Z,17.6
2022-10-22T12:37:50.662Z,18
2022-10-22T12:39:51.992Z,17.8
2022-10-22T12:41:53.356Z,17.6
2022-10-22T12:43:54.715Z,17.7
2022-10-22T12:45:55.980Z,17.7
2022-10-22T12:47:57.366Z,17.8
2022-10-22T12:50:01.970Z,17.7
2022-10-22T12:52:03.190Z,17.5
2022-10-22T12:54:04.585Z,17.4
2022-10-22T12:56:27.526Z,17.3
2022-10-22T12:58:28.900Z,17.3
2022-10-22T13:00:30.180Z,17.3
2022-10-22T13:02:36.232Z,17.4
2022-10-22T13:04:37.559Z,17.3
2022-10-22T13:06:38.899Z,17.4
2022-10-22T13:08:40.296Z,17.4
2022-10-22T13:10:41.582Z,17.6
2022-10-22T13:12:43.200Z,17.6
2022-10-22T13:14:44.104Z,17.8
2022-10-22T13:16:48.677Z,17.7
2022-10-22T13:18:49.912Z,17.6
2022-10-22T13:20:51.186Z,17.6
2022-10-22T13:22:52.443Z,17.8
2022-10-22T13:24:53.814Z,17.8
2022-10-22T13:26:55.060Z,17.8
2022-10-22T13:28:56.313Z,18.2
2022-10-22T13:31:00.800Z,18
2022-10-22T13:33:02.037Z,18.1
2022-10-22T13:35:03.294Z,18.4
2022-10-22T13:37:04.566Z,19.5
2022-10-22T13:39:05.909Z,20.2
2022-10-22T13:41:07.216Z,21.1
2022-10-22T13:45:13.021Z,21.1
2022-10-22T13:47:14.299Z,20.6
2022-10-22T13:49:15.638Z,20.1
2022-10-22T13:50:17.874Z,20.4
2022-10-22T13:52:19.207Z,19.6
2022-10-22T13:54:20.591Z,20
2022-10-22T13:56:21.725Z,20.3
2022-10-22T13:58:26.286Z,20
2022-10-22T14:00:27.714Z,20
2022-10-22T14:02:28.966Z,20.2
2022-10-22T14:04:30.225Z,20.7
2022-10-22T14:06:31.726Z,20.7
2022-10-22T14:08:32.822Z,19.6
2022-10-22T14:10:33.985Z,20
2022-10-22T14:12:38.491Z,20.4
2022-10-22T14:14:39.835Z,20.5
2022-10-22T14:16:41.080Z,20
2022-10-22T14:18:42.321Z,19.9
2022-10-22T14:20:43.659Z,19.4
2022-10-22T14:22:44.916Z,18.5
2022-10-22T14:24:46.283Z,18
2022-10-22T14:26:50.850Z,17.4
2022-10-22T14:29:09.360Z,17.3
2022-10-22T14:30:53.459Z,17.3
2022-10-22T14:32:54.793Z,17.2
2022-10-22T14:34:56.123Z,17.6
2022-10-22T14:36:57.413Z,19
2022-10-22T14:38:58.692Z,19.8
2022-10-22T14:41:03.350Z,20.5
2022-10-22T14:43:04.633Z,20.4
2022-10-22T14:45:05.970Z,20.4
2022-10-22T14:56:18.134Z,20
2022-10-22T14:58:19.489Z,20
2022-10-22T15:04:23.350Z,18.4
2022-10-22T15:06:24.596Z,18.1
2022-10-22T15:08:29.107Z,17.7
2022-10-22T15:10:30.473Z,17.5
2022-10-22T15:12:31.728Z,17.4
2022-10-22T15:14:33.003Z,17.3
2022-10-22T15:16:34.370Z,17
2022-10-22T15:18:35.755Z,16.9
2022-10-22T15:20:37.115Z,16.7
2022-10-22T15:22:42.078Z,16.7
2022-10-22T15:24:43.162Z,16.8
2022-10-22T15:26:44.418Z,16.7
2022-10-22T15:28:45.734Z,16.5
2022-10-22T15:30:47.076Z,16.4
2022-10-22T15:32:48.438Z,16.3
2022-10-22T15:34:49.755Z,16.4
2022-10-22T15:36:54.415Z,16.6
2022-10-22T15:38:55.801Z,16.6
2022-10-22T15:40:58.867Z,17
2022-10-22T15:41:59.518Z,16.9
2022-10-22T15:44:00.928Z,16.7
2022-10-22T15:46:02.328Z,16.8
2022-10-22T15:48:03.690Z,17
2022-10-22T15:50:08.386Z,17.1
2022-10-22T15:52:09.684Z,17
2022-10-22T15:54:11.056Z,16.9
2022-10-22T15:56:12.437Z,16.7
2022-10-22T15:58:13.824Z,16.5
2022-10-22T16:00:15.197Z,16.3
2022-10-22T16:02:16.580Z,16.1
2022-10-22T16:06:22.681Z,15.6
2022-10-22T16:08:24.045Z,15.4
2022-10-22T16:18:34.343Z,14.4
2022-10-22T16:20:35.690Z,14.2
2022-10-22T16:22:37.082Z,13.8
2022-10-22T16:26:39.882Z,13.5
2022-10-22T16:28:41.268Z,13.3
2022-10-22T16:30:42.656Z,13.2
2022-10-22T16:32:47.343Z,13
2022-10-22T16:34:48.757Z,13
2022-10-22T16:36:50.143Z,13
2022-10-22T16:41:20.321Z,12.9
2022-10-22T16:43:21.699Z,12.8
2022-10-22T16:51:30.926Z,12.9
2022-10-22T16:53:32.366Z,12.7
2022-10-22T16:55:33.751Z,12.5
2022-10-22T16:59:39.870Z,12
2022-10-22T17:09:46.837Z,11.7
2022-10-22T17:11:48.251Z,11.7
2022-10-22T17:15:54.366Z,11.8
2022-10-22T17:17:55.747Z,11.8
2022-10-22T17:19:57.118Z,11.7
2022-10-22T17:21:58.549Z,11.7
2022-10-22T17:23:59.941Z,11.7
2022-10-22T17:26:01.311Z,11.7
2022-10-22T17:28:06.000Z,11.6
2022-10-22T17:30:07.414Z,11.6
2022-10-22T17:32:08.790Z,11.6
2022-10-22T17:33:11.148Z,11.5
2022-10-22T17:35:12.583Z,11.4
2022-10-22T17:41:20.030Z,11.1
2022-10-22T17:43:21.407Z,11.1
2022-10-22T17:45:22.826Z,11.2
2022-10-22T17:51:27.014Z,11.1
2022-10-22T17:53:28.419Z,11
2022-10-22T18:03:38.760Z,10.9
2022-10-22T18:05:40.148Z,10.8
2022-10-22T18:07:41.568Z,10.8
2022-10-22T18:13:49.082Z,11.1
2022-10-22T18:15:50.467Z,11
2022-10-22T18:17:51.866Z,10.9
2022-10-22T18:19:53.275Z,10.8
2022-10-22T18:21:54.700Z,10.7
2022-10-22T18:23:59.396Z,10.7
2022-10-22T18:26:00.798Z,10.8
2022-10-22T18:28:02.184Z,10.8
2022-10-22T18:29:04.522Z,10.8
2022-10-22T18:31:05.934Z,10.8
2022-10-22T18:33:07.329Z,10.7
2022-10-22T18:35:08.731Z,10.7
2022-10-22T18:37:13.490Z,10.7
2022-10-22T18:39:14.896Z,10.7
2022-10-22T18:41:16.312Z,10.7
2022-10-22T18:43:17.687Z,10.7
2022-10-22T18:45:19.075Z,10.7
2022-10-22T18:47:20.480Z,10.6
2022-10-22T18:49:21.885Z,10.6
2022-10-22T18:53:29.547Z,10.4
2022-10-22T18:55:30.928Z,10.5
2022-10-22T18:57:32.307Z,10.5
2022-10-22T18:59:33.728Z,10.3
2022-10-22T19:01:35.168Z,10.3
2022-10-22T19:03:36.566Z,10.4
2022-10-22T19:05:41.200Z,10.4
2022-10-22T19:07:42.907Z,10.4
2022-10-22T19:09:44.023Z,10.4
2022-10-22T19:13:46.793Z,10.5
2022-10-22T19:15:48.202Z,10.5
2022-10-22T19:17:49.590Z,10.4
2022-10-22T19:19:54.327Z,10.4
2022-10-22T19:21:55.723Z,10.4
2022-10-22T19:23:57.068Z,10.5
2022-10-22T19:24:59.420Z,10.4
2022-10-22T19:27:00.811Z,10.4
2022-10-22T19:29:02.230Z,10.1
2022-10-22T19:33:08.315Z,10.1
2022-10-22T19:35:09.668Z,10.1
2022-10-22T19:37:11.059Z,10.1
2022-10-22T19:39:12.445Z,10.2
2022-10-22T19:41:13.850Z,10.3
2022-10-22T19:47:21.345Z,10.1
2022-10-22T19:49:23.150Z,10.1
2022-10-22T19:51:24.160Z,10.1
2022-10-22T19:53:25.534Z,10.1
2022-10-22T19:55:26.932Z,10.1
2022-10-22T19:57:28.314Z,10.1
2022-10-22T19:59:31.463Z,10.1
2022-10-22T20:01:34.426Z,10.2
2022-10-22T20:03:35.814Z,10.2
2022-10-22T20:05:37.223Z,10.2
2022-10-22T20:07:38.974Z,10.2
2022-10-22T20:09:39.993Z,10.2
2022-10-22T20:11:41.384Z,10.3
2022-10-22T20:13:44.434Z,10.2
2022-10-22T20:15:47.480Z,10
2022-10-22T20:17:48.871Z,9.9
2022-10-22T20:19:50.413Z,9.7
2022-10-22T20:22:16.257Z,9.6
2022-10-22T20:24:14.756Z,9.5
2022-10-22T20:26:16.158Z,9.5
2022-10-22T20:28:20.825Z,9.6
2022-10-22T20:30:22.244Z,9.6
2022-10-22T20:32:23.615Z,9.6
2022-10-22T20:34:25.056Z,9.6
2022-10-22T20:36:26.415Z,9.7
2022-10-22T20:42:33.897Z,9.7
2022-10-22T20:50:39.475Z,9.6
2022-10-22T20:52:40.863Z,9.6
2022-10-22T20:54:42.249Z,9.6
2022-10-22T20:56:46.950Z,9.7
2022-10-22T20:58:48.348Z,9.6
2022-10-22T21:00:49.833Z,9.5
2022-10-22T21:02:51.193Z,9.5
2022-10-22T21:04:52.601Z,9.5
2022-10-22T21:06:53.961Z,9.6
2022-10-22T21:13:01.478Z,9.2
2022-10-22T21:15:02.867Z,9.1
2022-10-22T21:16:05.205Z,9.1
2022-10-22T21:20:08.125Z,9.2
2022-10-22T21:22:09.449Z,9.2
2022-10-22T21:24:14.083Z,9.2
2022-10-22T21:26:15.484Z,9.1
2022-10-22T21:28:17.016Z,9.1
2022-10-22T21:30:18.285Z,9.1
2022-10-22T21:32:19.657Z,9.3
2022-10-22T21:34:21.029Z,9.3
2022-10-22T21:36:23.251Z,9.3
2022-10-22T21:38:27.153Z,9.4
2022-10-22T21:40:28.528Z,9.5
2022-10-22T21:42:29.953Z,9.7
2022-10-22T21:44:31.292Z,9.7
2022-10-22T21:46:32.672Z,9.7
2022-10-22T21:48:34.076Z,9.5
2022-10-22T21:50:35.451Z,9.4
2022-10-22T21:52:40.256Z,9.4
2022-10-22T21:54:41.538Z,9.5
2022-10-22T21:56:42.910Z,9.7
2022-10-22T21:58:44.305Z,9.7
2022-10-22T22:00:45.729Z,9.7
2022-10-22T22:02:47.086Z,9.8
2022-10-22T22:04:48.491Z,9.8
2022-10-22T22:06:53.214Z,9.8
2022-10-22T22:08:54.654Z,9.7
2022-10-22T22:10:55.964Z,9.7
2022-10-22T22:11:58.330Z,9.7
2022-10-22T22:13:59.731Z,9.6
2022-10-22T22:16:01.144Z,9.6
2022-10-22T22:18:02.542Z,9.7
2022-10-22T22:20:07.230Z,9.8
2022-10-22T22:22:08.620Z,9.8
2022-10-22T22:24:10.030Z,9.6
2022-10-22T22:26:11.439Z,9.4
2022-10-22T22:28:12.809Z,9.3
2022-10-22T22:30:14.220Z,9.3
2022-10-22T22:32:15.608Z,9.3
2022-10-22T22:34:20.322Z,9.2
2022-10-22T22:36:21.724Z,9.2
2022-10-22T22:38:23.154Z,9.2
2022-10-22T22:40:24.525Z,9.3
2022-10-22T22:42:25.894Z,9.5
2022-10-22T22:44:27.289Z,9.6
2022-10-22T22:46:28.701Z,9.6
2022-10-22T22:48:33.535Z,9.6
2022-10-22T22:52:36.160Z,9.9
2022-10-22T22:54:37.541Z,9.9
2022-10-22T22:56:38.922Z,9.8
2022-10-22T22:58:40.465Z,9.8
2022-10-22T23:07:51.541Z,9.7
2022-10-22T23:09:52.908Z,9.6
2022-10-22T23:11:54.301Z,9.6
2022-10-22T23:13:55.744Z,9.6
2022-10-22T23:16:00.427Z,9.6
2022-10-22T23:18:01.816Z,9.6
2022-10-22T23:20:03.251Z,9.6
2022-10-22T23:22:04.601Z,9.6
2022-10-22T23:24:05.978Z,9.7
2022-10-22T23:26:07.370Z,9.8
2022-10-22T23:28:08.796Z,9.7
2022-10-22T23:30:13.483Z,9.6
2022-10-22T23:32:14.882Z,9.7
2022-10-22T23:34:16.300Z,9.7
2022-10-22T23:36:17.659Z,9.7
2022-10-22T23:38:19.014Z,9.7
2022-10-22T23:40:20.407Z,9.6
2022-10-22T23:42:21.807Z,9.6
2022-10-22T23:44:26.524Z,9.5
2022-10-22T23:46:27.897Z,9.4
2022-10-22T23:48:29.326Z,9.3
2022-10-22T23:50:30.694Z,9.3
2022-10-22T23:52:32.094Z,9.3
2022-10-22T23:54:33.472Z,9.3
2022-10-22T23:56:34.896Z,9.4
2022-10-22T23:58:39.557Z,9.5
